sensor_id;sensor_type;location;lat;lon;timestamp;P1;durP1;ratioP1;P2;durP2;ratioP2
36715;SDS011;22699;51.034;3.730;2023-12-14T00:00:12;47.00;;;27.40;;
36715;SDS011;22699;51.034;3.730;2023-12-14T00:02:38;48.67;;;26.45;;
36715;SDS011;22699;51.034;3.730;2023-12-14T00:05:05;49.95;;;26.75;;
36715;SDS011;22699;51.034;3.730;2023-12-14T00:07:32;50.47;;;26.35;;
36715;SDS011;22699;51.034;3.730;2023-12-14T00:10:04;53.20;;;27.60;;
36715;SDS011;22699;51.034;3.730;2023-12-14T00:12:34;50.47;;;27.05;;
36715;SDS011;22699;51.034;3.730;2023-12-14T00:15:02;51.95;;;26.80;;
36715;SDS011;22699;51.034;3.730;2023-12-14T00:17:30;48.20;;;25.13;;
36715;SDS011;22699;51.034;3.730;2023-12-14T00:20:01;48.03;;;27.27;;
36715;SDS011;22699;51.034;3.730;2023-12-14T00:22:39;48.13;;;25.40;;
36715;SDS011;22699;51.034;3.730;2023-12-14T00:25:07;47.07;;;25.87;;
36715;SDS011;22699;51.034;3.730;2023-12-14T00:30:03;53.50;;;27.30;;
36715;SDS011;22699;51.034;3.730;2023-12-14T00:32:45;49.78;;;28.00;;
36715;SDS011;22699;51.034;3.730;2023-12-14T00:35:35;52.20;;;27.75;;
36715;SDS011;22699;51.034;3.730;2023-12-14T00:38:07;50.72;;;29.35;;
36715;SDS011;22699;51.034;3.730;2023-12-14T00:40:36;55.88;;;30.98;;
36715;SDS011;22699;51.034;3.730;2023-12-14T00:43:03;59.55;;;32.45;;
36715;SDS011;22699;51.034;3.730;2023-12-14T00:45:36;58.88;;;31.30;;
36715;SDS011;22699;51.034;3.730;2023-12-14T00:48:25;57.42;;;29.73;;
36715;SDS011;22699;51.034;3.730;2023-12-14T00:50:55;56.35;;;29.25;;
36715;SDS011;22699;51.034;3.730;2023-12-14T01:05:03;37.67;;;25.73;;
36715;SDS011;22699;51.034;3.730;2023-12-14T01:07:32;36.78;;;26.92;;
36715;SDS011;22699;51.034;3.730;2023-12-14T01:12:32;35.25;;;22.95;;
36715;SDS011;22699;51.034;3.730;2023-12-14T01:17:38;33.38;;;22.85;;
36715;SDS011;22699;51.034;3.730;2023-12-14T01:20:05;34.65;;;22.08;;
36715;SDS011;22699;51.034;3.730;2023-12-14T01:25:47;27.40;;;19.75;;
36715;SDS011;22699;51.034;3.730;2023-12-14T01:28:28;23.50;;;18.10;;
36715;SDS011;22699;51.034;3.730;2023-12-14T01:31:01;25.08;;;18.70;;
36715;SDS011;22699;51.034;3.730;2023-12-14T01:34:08;20.92;;;17.38;;
36715;SDS011;22699;51.034;3.730;2023-12-14T01:36:40;22.40;;;17.35;;
36715;SDS011;22699;51.034;3.730;2023-12-14T01:39:12;20.35;;;16.73;;
36715;SDS011;22699;51.034;3.730;2023-12-14T01:41:38;25.02;;;17.88;;
36715;SDS011;22699;51.034;3.730;2023-12-14T01:44:10;24.42;;;16.77;;
36715;SDS011;22699;51.034;3.730;2023-12-14T01:46:37;24.75;;;17.83;;
36715;SDS011;22699;51.034;3.730;2023-12-14T01:51:41;21.77;;;15.85;;
36715;SDS011;22699;51.034;3.730;2023-12-14T01:54:07;22.98;;;16.65;;
36715;SDS011;22699;51.034;3.730;2023-12-14T01:56:34;20.13;;;16.13;;
36715;SDS011;22699;51.034;3.730;2023-12-14T01:59:04;18.95;;;15.30;;
36715;SDS011;22699;51.034;3.730;2023-12-14T02:01:43;22.10;;;15.80;;
36715;SDS011;22699;51.034;3.730;2023-12-14T02:07:08;19.95;;;16.85;;
36715;SDS011;22699;51.034;3.730;2023-12-14T02:09:40;21.85;;;16.55;;
36715;SDS011;22699;51.034;3.730;2023-12-14T02:12:07;21.65;;;16.85;;
36715;SDS011;22699;51.034;3.730;2023-12-14T02:14:34;22.35;;;16.60;;
36715;SDS011;22699;51.034;3.730;2023-12-14T02:17:09;17.15;;;15.35;;
36715;SDS011;22699;51.034;3.730;2023-12-14T02:19:41;17.70;;;15.40;;
36715;SDS011;22699;51.034;3.730;2023-12-14T02:22:07;18.90;;;15.43;;
36715;SDS011;22699;51.034;3.730;2023-12-14T02:24:38;17.60;;;15.13;;
36715;SDS011;22699;51.034;3.730;2023-12-14T02:27:06;17.17;;;15.35;;
36715;SDS011;22699;51.034;3.730;2023-12-14T02:29:34;17.13;;;15.07;;
36715;SDS011;22699;51.034;3.730;2023-12-14T02:32:02;15.18;;;13.52;;
36715;SDS011;22699;51.034;3.730;2023-12-14T02:34:34;16.90;;;12.65;;
36715;SDS011;22699;51.034;3.730;2023-12-14T02:39:35;14.30;;;12.23;;
36715;SDS011;22699;51.034;3.730;2023-12-14T02:42:03;16.70;;;12.27;;
36715;SDS011;22699;51.034;3.730;2023-12-14T02:44:43;12.73;;;10.82;;
36715;SDS011;22699;51.034;3.730;2023-12-14T02:50:06;12.80;;;9.32;;
36715;SDS011;22699;51.034;3.730;2023-12-14T02:52:32;10.90;;;9.35;;
36715;SDS011;22699;51.034;3.730;2023-12-14T02:55:04;9.40;;;7.82;;
36715;SDS011;22699;51.034;3.730;2023-12-14T02:57:40;11.77;;;8.35;;
36715;SDS011;22699;51.034;3.730;2023-12-14T03:10:40;11.05;;;7.88;;
36715;SDS011;22699;51.034;3.730;2023-12-14T03:13:09;13.45;;;8.38;;
36715;SDS011;22699;51.034;3.730;2023-12-14T03:15:38;10.43;;;8.15;;
36715;SDS011;22699;51.034;3.730;2023-12-14T03:18:04;11.30;;;7.50;;
36715;SDS011;22699;51.034;3.730;2023-12-14T03:20:35;9.52;;;7.28;;
36715;SDS011;22699;51.034;3.730;2023-12-14T03:23:01;9.32;;;8.43;;
36715;SDS011;22699;51.034;3.730;2023-12-14T03:25:30;8.85;;;7.95;;
36715;SDS011;22699;51.034;3.730;2023-12-14T03:27:58;9.15;;;7.55;;
36715;SDS011;22699;51.034;3.730;2023-12-14T03:30:27;10.07;;;7.90;;
36715;SDS011;22699;51.034;3.730;2023-12-14T03:33:04;7.82;;;6.93;;
36715;SDS011;22699;51.034;3.730;2023-12-14T03:38:13;11.73;;;7.70;;
36715;SDS011;22699;51.034;3.730;2023-12-14T03:40:53;8.88;;;7.00;;
36715;SDS011;22699;51.034;3.730;2023-12-14T03:46:04;9.60;;;7.60;;
36715;SDS011;22699;51.034;3.730;2023-12-14T03:51:04;11.18;;;7.53;;
36715;SDS011;22699;51.034;3.730;2023-12-14T03:56:00;12.02;;;8.23;;
36715;SDS011;22699;51.034;3.730;2023-12-14T03:58:33;10.48;;;7.82;;
36715;SDS011;22699;51.034;3.730;2023-12-14T04:01:01;8.90;;;8.00;;
36715;SDS011;22699;51.034;3.730;2023-12-14T04:03:33;9.82;;;7.57;;
36715;SDS011;22699;51.034;3.730;2023-12-14T04:05:59;9.73;;;6.72;;
36715;SDS011;22699;51.034;3.730;2023-12-14T04:08:28;10.38;;;8.05;;
36715;SDS011;22699;51.034;3.730;2023-12-14T04:10:56;12.68;;;8.57;;
36715;SDS011;22699;51.034;3.730;2023-12-14T04:15:51;9.73;;;7.65;;
36715;SDS011;22699;51.034;3.730;2023-12-14T04:18:32;10.45;;;7.28;;
36715;SDS011;22699;51.034;3.730;2023-12-14T04:21:04;9.10;;;7.30;;
36715;SDS011;22699;51.034;3.730;2023-12-14T04:23:30;9.85;;;6.65;;
36715;SDS011;22699;51.034;3.730;2023-12-14T04:25:59;7.55;;;6.82;;
36715;SDS011;22699;51.034;3.730;2023-12-14T04:30:55;10.52;;;8.05;;
36715;SDS011;22699;51.034;3.730;2023-12-14T04:33:22;13.55;;;7.70;;
36715;SDS011;22699;51.034;3.730;2023-12-14T04:35:56;8.38;;;7.45;;
36715;SDS011;22699;51.034;3.730;2023-12-14T04:38:24;10.45;;;6.85;;
36715;SDS011;22699;51.034;3.730;2023-12-14T04:40:56;11.18;;;8.07;;
36715;SDS011;22699;51.034;3.730;2023-12-14T04:43:22;11.20;;;8.10;;
36715;SDS011;22699;51.034;3.730;2023-12-14T04:46:02;12.60;;;7.45;;
36715;SDS011;22699;51.034;3.730;2023-12-14T04:48:34;13.68;;;7.22;;
36715;SDS011;22699;51.034;3.730;2023-12-14T04:51:12;12.93;;;7.13;;
36715;SDS011;22699;51.034;3.730;2023-12-14T04:53:39;8.20;;;6.45;;
36715;SDS011;22699;51.034;3.730;2023-12-14T04:56:10;13.27;;;7.85;;
36715;SDS011;22699;51.034;3.730;2023-12-14T05:01:13;11.02;;;7.05;;
36715;SDS011;22699;51.034;3.730;2023-12-14T05:03:42;9.73;;;6.30;;
36715;SDS011;22699;51.034;3.730;2023-12-14T05:06:10;13.13;;;7.50;;
36715;SDS011;22699;51.034;3.730;2023-12-14T05:08:37;12.85;;;7.15;;
36715;SDS011;22699;51.034;3.730;2023-12-14T05:13:40;10.63;;;6.82;;
36715;SDS011;22699;51.034;3.730;2023-12-14T05:16:06;11.80;;;6.82;;
36715;SDS011;22699;51.034;3.730;2023-12-14T05:18:37;10.07;;;6.13;;
36715;SDS011;22699;51.034;3.730;2023-12-14T05:21:09;12.48;;;5.82;;
36715;SDS011;22699;51.034;3.730;2023-12-14T05:23:41;13.23;;;6.85;;
36715;SDS011;22699;51.034;3.730;2023-12-14T05:26:11;17.70;;;6.35;;
36715;SDS011;22699;51.034;3.730;2023-12-14T05:28:40;7.80;;;5.82;;
36715;SDS011;22699;51.034;3.730;2023-12-14T05:31:06;9.77;;;6.28;;
36715;SDS011;22699;51.034;3.730;2023-12-14T05:33:37;10.48;;;6.05;;
36715;SDS011;22699;51.034;3.730;2023-12-14T05:38:36;11.98;;;6.30;;
36715;SDS011;22699;51.034;3.730;2023-12-14T05:41:03;11.45;;;6.13;;
36715;SDS011;22699;51.034;3.730;2023-12-14T05:43:29;11.25;;;6.05;;
36715;SDS011;22699;51.034;3.730;2023-12-14T05:45:58;11.85;;;7.45;;
36715;SDS011;22699;51.034;3.730;2023-12-14T05:48:29;11.27;;;6.70;;
36715;SDS011;22699;51.034;3.730;2023-12-14T05:50:56;10.18;;;6.45;;
36715;SDS011;22699;51.034;3.730;2023-12-14T05:53:25;11.02;;;6.55;;
36715;SDS011;22699;51.034;3.730;2023-12-14T05:55:51;13.48;;;6.65;;
36715;SDS011;22699;51.034;3.730;2023-12-14T05:58:22;9.90;;;6.10;;
36715;SDS011;22699;51.034;3.730;2023-12-14T06:00:55;14.25;;;7.50;;
36715;SDS011;22699;51.034;3.730;2023-12-14T06:03:22;12.45;;;5.72;;
36715;SDS011;22699;51.034;3.730;2023-12-14T06:05:47;11.52;;;6.05;;
36715;SDS011;22699;51.034;3.730;2023-12-14T06:08:14;9.57;;;5.97;;
36715;SDS011;22699;51.034;3.730;2023-12-14T06:10:43;13.75;;;6.40;;
36715;SDS011;22699;51.034;3.730;2023-12-14T06:15:51;12.68;;;6.72;;
36715;SDS011;22699;51.034;3.730;2023-12-14T06:18:18;11.70;;;6.15;;
36715;SDS011;22699;51.034;3.730;2023-12-14T06:20:47;10.88;;;5.65;;
36715;SDS011;22699;51.034;3.730;2023-12-14T06:25:46;12.18;;;5.82;;
36715;SDS011;22699;51.034;3.730;2023-12-14T06:28:21;13.13;;;6.25;;
36715;SDS011;22699;51.034;3.730;2023-12-14T06:33:41;10.73;;;5.80;;
36715;SDS011;22699;51.034;3.730;2023-12-14T06:36:15;9.45;;;7.28;;
36715;SDS011;22699;51.034;3.730;2023-12-14T06:38:46;18.58;;;9.15;;
36715;SDS011;22699;51.034;3.730;2023-12-14T06:41:22;10.18;;;5.18;;
36715;SDS011;22699;51.034;3.730;2023-12-14T06:43:54;9.90;;;5.88;;
36715;SDS011;22699;51.034;3.730;2023-12-14T06:52:16;9.23;;;6.20;;
36715;SDS011;22699;51.034;3.730;2023-12-14T06:57:32;11.95;;;6.28;;
36715;SDS011;22699;51.034;3.730;2023-12-14T07:03:01;9.77;;;6.35;;
36715;SDS011;22699;51.034;3.730;2023-12-14T07:05:30;9.95;;;5.65;;
36715;SDS011;22699;51.034;3.730;2023-12-14T07:11:18;11.88;;;6.03;;
36715;SDS011;22699;51.034;3.730;2023-12-14T07:13:58;11.85;;;6.22;;
36715;SDS011;22699;51.034;3.730;2023-12-14T07:16:41;12.88;;;7.13;;
36715;SDS011;22699;51.034;3.730;2023-12-14T07:20:27;11.20;;;5.68;;
36715;SDS011;22699;51.034;3.730;2023-12-14T07:26:47;14.10;;;6.20;;
36715;SDS011;22699;51.034;3.730;2023-12-14T08:15:26;17.73;;;7.72;;
36715;SDS011;22699;51.034;3.730;2023-12-14T08:18:31;17.27;;;7.65;;
36715;SDS011;22699;51.034;3.730;2023-12-14T08:21:02;11.60;;;6.43;;
36715;SDS011;22699;51.034;3.730;2023-12-14T08:23:38;12.00;;;6.85;;
36715;SDS011;22699;51.034;3.730;2023-12-14T08:26:04;17.08;;;7.00;;
36715;SDS011;22699;51.034;3.730;2023-12-14T08:28:36;14.75;;;6.88;;
36715;SDS011;22699;51.034;3.730;2023-12-14T08:31:03;14.32;;;6.57;;
36715;SDS011;22699;51.034;3.730;2023-12-14T08:33:30;16.05;;;6.55;;
36715;SDS011;22699;51.034;3.730;2023-12-14T08:36:00;10.35;;;5.97;;
36715;SDS011;22699;51.034;3.730;2023-12-14T08:38:27;13.07;;;6.00;;
36715;SDS011;22699;51.034;3.730;2023-12-14T08:40:57;22.45;;;7.05;;
36715;SDS011;22699;51.034;3.730;2023-12-14T08:43:51;22.70;;;6.55;;
36715;SDS011;22699;51.034;3.730;2023-12-14T08:46:22;15.50;;;6.40;;
36715;SDS011;22699;51.034;3.730;2023-12-14T08:48:58;18.17;;;7.60;;
36715;SDS011;22699;51.034;3.730;2023-12-14T08:51:56;14.57;;;6.20;;
36715;SDS011;22699;51.034;3.730;2023-12-14T08:54:32;19.52;;;6.47;;
36715;SDS011;22699;51.034;3.730;2023-12-14T08:57:03;15.75;;;5.57;;
36715;SDS011;22699;51.034;3.730;2023-12-14T08:59:31;12.13;;;5.88;;
36715;SDS011;22699;51.034;3.730;2023-12-14T09:02:00;13.35;;;6.40;;
36715;SDS011;22699;51.034;3.730;2023-12-14T09:04:39;12.55;;;5.30;;
36715;SDS011;22699;51.034;3.730;2023-12-14T09:07:09;12.65;;;6.25;;
36715;SDS011;22699;51.034;3.730;2023-12-14T09:09:43;13.00;;;6.68;;
36715;SDS011;22699;51.034;3.730;2023-12-14T09:12:27;8.25;;;5.85;;
36715;SDS011;22699;51.034;3.730;2023-12-14T09:17:48;8.55;;;5.72;;
36715;SDS011;22699;51.034;3.730;2023-12-14T09:20:26;14.48;;;6.70;;
36715;SDS011;22699;51.034;3.730;2023-12-14T09:23:05;9.85;;;6.43;;
36715;SDS011;22699;51.034;3.730;2023-12-14T09:25:37;13.68;;;7.22;;
36715;SDS011;22699;51.034;3.730;2023-12-14T09:33:52;11.40;;;6.77;;
36715;SDS011;22699;51.034;3.730;2023-12-14T09:36:25;20.13;;;8.27;;
36715;SDS011;22699;51.034;3.730;2023-12-14T09:38:54;13.88;;;7.50;;
36715;SDS011;22699;51.034;3.730;2023-12-14T09:41:24;17.50;;;6.47;;
36715;SDS011;22699;51.034;3.730;2023-12-14T09:43:55;16.90;;;6.43;;
36715;SDS011;22699;51.034;3.730;2023-12-14T09:49:24;14.90;;;6.45;;
36715;SDS011;22699;51.034;3.730;2023-12-14T09:52:10;12.85;;;6.85;;
36715;SDS011;22699;51.034;3.730;2023-12-14T09:54:53;12.05;;;6.68;;
36715;SDS011;22699;51.034;3.730;2023-12-14T09:57:32;13.10;;;6.50;;
36715;SDS011;22699;51.034;3.730;2023-12-14T10:00:03;11.27;;;5.82;;
36715;SDS011;22699;51.034;3.730;2023-12-14T10:02:42;14.18;;;5.00;;
36715;SDS011;22699;51.034;3.730;2023-12-14T10:05:20;8.57;;;5.05;;
36715;SDS011;22699;51.034;3.730;2023-12-14T10:13:37;11.20;;;5.93;;
36715;SDS011;22699;51.034;3.730;2023-12-14T10:19:05;12.18;;;6.85;;
36715;SDS011;22699;51.034;3.730;2023-12-14T10:24:22;12.65;;;7.10;;
36715;SDS011;22699;51.034;3.730;2023-12-14T10:26:55;16.58;;;7.93;;
36715;SDS011;22699;51.034;3.730;2023-12-14T10:29:39;14.30;;;7.85;;
36715;SDS011;22699;51.034;3.730;2023-12-14T10:32:12;11.75;;;6.63;;
36715;SDS011;22699;51.034;3.730;2023-12-14T10:34:40;14.75;;;8.23;;
36715;SDS011;22699;51.034;3.730;2023-12-14T10:40:54;45.20;;;12.15;;
36715;SDS011;22699;51.034;3.730;2023-12-14T10:43:25;15.10;;;7.18;;
36715;SDS011;22699;51.034;3.730;2023-12-14T10:48:29;11.15;;;6.53;;
36715;SDS011;22699;51.034;3.730;2023-12-14T10:53:34;15.95;;;7.70;;
36715;SDS011;22699;51.034;3.730;2023-12-14T10:56:09;12.35;;;7.07;;
36715;SDS011;22699;51.034;3.730;2023-12-14T11:01:44;12.30;;;8.15;;
36715;SDS011;22699;51.034;3.730;2023-12-14T11:04:11;19.77;;;7.07;;
36715;SDS011;22699;51.034;3.730;2023-12-14T11:07:02;14.85;;;7.68;;
36715;SDS011;22699;51.034;3.730;2023-12-14T11:09:55;14.75;;;6.88;;
36715;SDS011;22699;51.034;3.730;2023-12-14T11:12:24;12.23;;;6.65;;
36715;SDS011;22699;51.034;3.730;2023-12-14T11:15:49;11.38;;;6.90;;
36715;SDS011;22699;51.034;3.730;2023-12-14T11:21:18;15.98;;;7.18;;
36715;SDS011;22699;51.034;3.730;2023-12-14T11:24:31;49.50;;;11.45;;
36715;SDS011;22699;51.034;3.730;2023-12-14T11:32:56;13.23;;;7.55;;
36715;SDS011;22699;51.034;3.730;2023-12-14T11:40:56;25.98;;;9.35;;
36715;SDS011;22699;51.034;3.730;2023-12-14T11:43:27;14.45;;;8.32;;
36715;SDS011;22699;51.034;3.730;2023-12-14T11:46:16;14.88;;;7.18;;
36715;SDS011;22699;51.034;3.730;2023-12-14T11:48:46;12.10;;;8.00;;
36715;SDS011;22699;51.034;3.730;2023-12-14T11:51:19;16.33;;;8.40;;
36715;SDS011;22699;51.034;3.730;2023-12-14T11:53:46;25.17;;;9.48;;
36715;SDS011;22699;51.034;3.730;2023-12-14T11:56:37;23.65;;;8.38;;
36715;SDS011;22699;51.034;3.730;2023-12-14T11:59:17;19.23;;;9.23;;
36715;SDS011;22699;51.034;3.730;2023-12-14T12:02:07;13.38;;;8.27;;
36715;SDS011;22699;51.034;3.730;2023-12-14T12:04:39;13.50;;;8.50;;
36715;SDS011;22699;51.034;3.730;2023-12-14T12:07:21;15.38;;;8.50;;
36715;SDS011;22699;51.034;3.730;2023-12-14T12:10:15;15.25;;;7.43;;
36715;SDS011;22699;51.034;3.730;2023-12-14T12:13:28;14.48;;;7.93;;
36715;SDS011;22699;51.034;3.730;2023-12-14T12:16:01;12.73;;;7.78;;
36715;SDS011;22699;51.034;3.730;2023-12-14T12:18:30;15.25;;;7.22;;
36715;SDS011;22699;51.034;3.730;2023-12-14T12:21:00;12.50;;;8.63;;
36715;SDS011;22699;51.034;3.730;2023-12-14T12:23:30;9.70;;;7.25;;
36715;SDS011;22699;51.034;3.730;2023-12-14T12:29:02;15.00;;;8.05;;
36715;SDS011;22699;51.034;3.730;2023-12-14T12:31:34;12.70;;;7.97;;
36715;SDS011;22699;51.034;3.730;2023-12-14T12:34:10;15.70;;;7.05;;
36715;SDS011;22699;51.034;3.730;2023-12-14T12:37:02;11.18;;;6.28;;
36715;SDS011;22699;51.034;3.730;2023-12-14T12:39:32;12.02;;;6.75;;
36715;SDS011;22699;51.034;3.730;2023-12-14T12:42:16;15.60;;;7.05;;
36715;SDS011;22699;51.034;3.730;2023-12-14T12:44:55;16.55;;;7.72;;
36715;SDS011;22699;51.034;3.730;2023-12-14T12:47:52;10.50;;;6.55;;
36715;SDS011;22699;51.034;3.730;2023-12-14T12:53:16;13.60;;;5.88;;
36715;SDS011;22699;51.034;3.730;2023-12-14T13:01:23;13.70;;;5.68;;
36715;SDS011;22699;51.034;3.730;2023-12-14T13:03:55;11.50;;;5.50;;
36715;SDS011;22699;51.034;3.730;2023-12-14T13:06:29;9.43;;;5.28;;
36715;SDS011;22699;51.034;3.730;2023-12-14T13:08:58;11.13;;;4.90;;
36715;SDS011;22699;51.034;3.730;2023-12-14T13:11:36;11.75;;;5.43;;
36715;SDS011;22699;51.034;3.730;2023-12-14T13:14:06;14.40;;;7.43;;
36715;SDS011;22699;51.034;3.730;2023-12-14T13:17:11;16.45;;;11.52;;
36715;SDS011;22699;51.034;3.730;2023-12-14T13:19:44;10.98;;;5.50;;
36715;SDS011;22699;51.034;3.730;2023-12-14T13:22:24;9.63;;;3.60;;
36715;SDS011;22699;51.034;3.730;2023-12-14T13:24:56;8.63;;;3.20;;
36715;SDS011;22699;51.034;3.730;2023-12-14T13:27:36;7.22;;;2.75;;
36715;SDS011;22699;51.034;3.730;2023-12-14T13:33:49;6.70;;;2.10;;
36715;SDS011;22699;51.034;3.730;2023-12-14T13:36:27;10.82;;;3.55;;
36715;SDS011;22699;51.034;3.730;2023-12-14T13:39:52;6.05;;;2.03;;
36715;SDS011;22699;51.034;3.730;2023-12-14T14:07:39;5.68;;;1.65;;
36715;SDS011;22699;51.034;3.730;2023-12-14T15:21:19;7.72;;;1.88;;
36715;SDS011;22699;51.034;3.730;2023-12-14T15:23:50;7.47;;;2.83;;
36715;SDS011;22699;51.034;3.730;2023-12-14T15:26:30;7.68;;;2.15;;
36715;SDS011;22699;51.034;3.730;2023-12-14T15:29:05;2.60;;;1.50;;
36715;SDS011;22699;51.034;3.730;2023-12-14T15:31:33;7.90;;;1.95;;
36715;SDS011;22699;51.034;3.730;2023-12-14T15:33:59;8.85;;;2.60;;
36715;SDS011;22699;51.034;3.730;2023-12-14T15:36:26;5.63;;;2.03;;
36715;SDS011;22699;51.034;3.730;2023-12-14T15:41:53;8.35;;;2.08;;
36715;SDS011;22699;51.034;3.730;2023-12-14T15:44:35;10.07;;;2.58;;
36715;SDS011;22699;51.034;3.730;2023-12-14T15:47:00;6.85;;;2.30;;
36715;SDS011;22699;51.034;3.730;2023-12-14T15:49:30;6.78;;;2.28;;
36715;SDS011;22699;51.034;3.730;2023-12-14T15:51:58;7.05;;;2.05;;
36715;SDS011;22699;51.034;3.730;2023-12-14T15:54:47;6.93;;;2.33;;
36715;SDS011;22699;51.034;3.730;2023-12-14T15:57:15;6.18;;;2.40;;
36715;SDS011;22699;51.034;3.730;2023-12-14T15:59:42;3.10;;;2.13;;
36715;SDS011;22699;51.034;3.730;2023-12-14T16:02:08;6.30;;;2.05;;
36715;SDS011;22699;51.034;3.730;2023-12-14T16:04:34;6.35;;;2.55;;
36715;SDS011;22699;51.034;3.730;2023-12-14T16:07:01;9.77;;;3.17;;
36715;SDS011;22699;51.034;3.730;2023-12-14T16:09:42;6.55;;;2.58;;
36715;SDS011;22699;51.034;3.730;2023-12-14T16:12:13;9.43;;;2.10;;
36715;SDS011;22699;51.034;3.730;2023-12-14T16:14:45;7.18;;;2.30;;
36715;SDS011;22699;51.034;3.730;2023-12-14T16:17:25;8.80;;;2.42;;
36715;SDS011;22699;51.034;3.730;2023-12-14T16:19:57;5.38;;;2.47;;
36715;SDS011;22699;51.034;3.730;2023-12-14T16:22:24;7.70;;;2.13;;
36715;SDS011;22699;51.034;3.730;2023-12-14T16:24:50;10.13;;;2.30;;
36715;SDS011;22699;51.034;3.730;2023-12-14T16:27:16;5.65;;;2.05;;
36715;SDS011;22699;51.034;3.730;2023-12-14T16:29:45;7.65;;;2.20;;
36715;SDS011;22699;51.034;3.730;2023-12-14T16:32:11;11.32;;;3.30;;
36715;SDS011;22699;51.034;3.730;2023-12-14T16:34:37;8.55;;;2.25;;
36715;SDS011;22699;51.034;3.730;2023-12-14T16:37:03;8.45;;;2.85;;
36715;SDS011;22699;51.034;3.730;2023-12-14T16:39:28;6.70;;;2.28;;
36715;SDS011;22699;51.034;3.730;2023-12-14T16:41:55;7.15;;;2.97;;
36715;SDS011;22699;51.034;3.730;2023-12-14T16:44:20;7.88;;;2.33;;
36715;SDS011;22699;51.034;3.730;2023-12-14T16:46:48;7.05;;;2.80;;
36715;SDS011;22699;51.034;3.730;2023-12-14T16:49:15;7.60;;;3.30;;
36715;SDS011;22699;51.034;3.730;2023-12-14T16:51:42;7.50;;;2.50;;
36715;SDS011;22699;51.034;3.730;2023-12-14T16:54:08;7.25;;;2.78;;
36715;SDS011;22699;51.034;3.730;2023-12-14T16:56:34;8.52;;;3.10;;
36715;SDS011;22699;51.034;3.730;2023-12-14T16:59:07;6.72;;;2.65;;
36715;SDS011;22699;51.034;3.730;2023-12-14T17:01:37;8.35;;;2.95;;
36715;SDS011;22699;51.034;3.730;2023-12-14T17:04:07;8.38;;;2.67;;
36715;SDS011;22699;51.034;3.730;2023-12-14T17:06:35;8.35;;;2.70;;
36715;SDS011;22699;51.034;3.730;2023-12-14T17:13:58;5.50;;;2.88;;
36715;SDS011;22699;51.034;3.730;2023-12-14T17:16:29;7.05;;;3.15;;
36715;SDS011;22699;51.034;3.730;2023-12-14T17:19:04;8.90;;;3.30;;
36715;SDS011;22699;51.034;3.730;2023-12-14T17:21:30;8.02;;;2.92;;
36715;SDS011;22699;51.034;3.730;2023-12-14T17:24:05;6.40;;;3.58;;
36715;SDS011;22699;51.034;3.730;2023-12-14T17:26:41;6.82;;;2.95;;
36715;SDS011;22699;51.034;3.730;2023-12-14T17:32:34;11.32;;;3.97;;
36715;SDS011;22699;51.034;3.730;2023-12-14T17:38:12;11.95;;;4.10;;
36715;SDS011;22699;51.034;3.730;2023-12-14T17:40:48;7.38;;;4.30;;
36715;SDS011;22699;51.034;3.730;2023-12-14T17:43:15;12.00;;;5.18;;
36715;SDS011;22699;51.034;3.730;2023-12-14T17:49:29;8.75;;;3.83;;
36715;SDS011;22699;51.034;3.730;2023-12-14T17:52:04;11.15;;;3.53;;
36715;SDS011;22699;51.034;3.730;2023-12-14T18:07:59;8.55;;;4.38;;
36715;SDS011;22699;51.034;3.730;2023-12-14T18:10:43;9.88;;;4.55;;
36715;SDS011;22699;51.034;3.730;2023-12-14T18:17:12;8.80;;;4.50;;
36715;SDS011;22699;51.034;3.730;2023-12-14T18:23:39;10.25;;;5.55;;
36715;SDS011;22699;51.034;3.730;2023-12-14T18:33:35;9.38;;;4.82;;
36715;SDS011;22699;51.034;3.730;2023-12-14T18:55:51;15.07;;;5.28;;
36715;SDS011;22699;51.034;3.730;2023-12-14T19:26:16;9.18;;;4.18;;
36715;SDS011;22699;51.034;3.730;2023-12-14T19:29:09;8.50;;;4.82;;
36715;SDS011;22699;51.034;3.730;2023-12-14T19:44:26;8.25;;;3.83;;
36715;SDS011;22699;51.034;3.730;2023-12-14T19:51:37;8.90;;;4.10;;
36715;SDS011;22699;51.034;3.730;2023-12-14T21:20:26;14.05;;;6.60;;
36715;SDS011;22699;51.034;3.730;2023-12-14T21:25:38;11.35;;;7.22;;
36715;SDS011;22699;51.034;3.730;2023-12-14T21:31:43;13.20;;;7.80;;
36715;SDS011;22699;51.034;3.730;2023-12-14T21:44:04;17.13;;;8.00;;
36715;SDS011;22699;51.034;3.730;2023-12-14T21:51:02;15.75;;;8.25;;
36715;SDS011;22699;51.034;3.730;2023-12-14T21:54:04;10.23;;;7.15;;
36715;SDS011;22699;51.034;3.730;2023-12-14T21:57:07;12.18;;;8.93;;
36715;SDS011;22699;51.034;3.730;2023-12-14T22:02:48;11.70;;;8.35;;
36715;SDS011;22699;51.034;3.730;2023-12-14T22:06:09;14.63;;;9.27;;
36715;SDS011;22699;51.034;3.730;2023-12-14T22:11:46;14.00;;;9.50;;
36715;SDS011;22699;51.034;3.730;2023-12-14T22:14:21;15.52;;;10.30;;
36715;SDS011;22699;51.034;3.730;2023-12-14T22:20:35;15.10;;;9.43;;
36715;SDS011;22699;51.034;3.730;2023-12-14T22:23:02;13.85;;;9.40;;
36715;SDS011;22699;51.034;3.730;2023-12-14T22:41:31;13.95;;;9.65;;
36715;SDS011;22699;51.034;3.730;2023-12-14T22:44:29;14.98;;;9.95;;
36715;SDS011;22699;51.034;3.730;2023-12-14T22:54:04;14.23;;;10.18;;
36715;SDS011;22699;51.034;3.730;2023-12-14T22:59:36;14.18;;;11.93;;
36715;SDS011;22699;51.034;3.730;2023-12-14T23:05:03;11.73;;;10.35;;
36715;SDS011;22699;51.034;3.730;2023-12-14T23:16:04;18.35;;;12.57;;
36715;SDS011;22699;51.034;3.730;2023-12-14T23:22:08;15.10;;;12.63;;
36715;SDS011;22699;51.034;3.730;2023-12-14T23:31:48;24.55;;;13.68;;
36715;SDS011;22699;51.034;3.730;2023-12-14T23:37:51;20.38;;;14.25;;
36715;SDS011;22699;51.034;3.730;2023-12-14T23:40:25;19.10;;;13.70;;
36715;SDS011;22699;51.034;3.730;2023-12-14T23:49:41;24.60;;;16.70;;
36715;SDS011;22699;51.034;3.730;2023-12-14T23:58:34;19.98;;;14.93;;
